sensor_id;sensor_type;location;lat;lon;timestamp;pressure;altitude;pressure_sealevel;temperature;humidity
61898;BME280;47850;50.274;18.908;2023-04-28T00:00:52;98522.10;;;5.05;61.47
61898;BME280;47850;50.274;18.908;2023-04-28T00:03:20;98521.82;;;5.05;61.62
61898;BME280;47850;50.274;18.908;2023-04-28T00:05:47;98519.83;;;5.05;61.51
61898;BME280;47850;50.274;18.908;2023-04-28T00:08:15;98522.96;;;5.05;61.41
61898;BME280;47850;50.274;18.908;2023-04-28T00:10:43;98523.45;;;5.04;61.70
61898;BME280;47850;50.274;18.908;2023-04-28T00:13:11;98521.50;;;5.03;62.10
61898;BME280;47850;50.274;18.908;2023-04-28T00:15:39;98519.77;;;5.02;62.44
61898;BME280;47850;50.274;18.908;2023-04-28T00:18:06;98519.57;;;5.01;62.22
61898;BME280;47850;50.274;18.908;2023-04-28T00:20:34;98515.52;;;5.00;61.94
61898;BME280;47850;50.274;18.908;2023-04-28T00:23:02;98520.87;;;4.97;62.21
61898;BME280;47850;50.274;18.908;2023-04-28T00:25:29;98522.45;;;4.94;62.55
61898;BME280;47850;50.274;18.908;2023-04-28T00:27:57;98517.21;;;4.90;62.48
61898;BME280;47850;50.274;18.908;2023-04-28T00:30:25;98513.16;;;4.86;62.42
61898;BME280;47850;50.274;18.908;2023-04-28T00:32:53;98517.27;;;4.85;62.24
61898;BME280;47850;50.274;18.908;2023-04-28T00:35:21;98517.17;;;4.84;62.01
61898;BME280;47850;50.274;18.908;2023-04-28T00:37:49;98516.52;;;4.82;62.11
61898;BME280;47850;50.274;18.908;2023-04-28T00:40:16;98514.79;;;4.80;62.44
61898;BME280;47850;50.274;18.908;2023-04-28T00:42:44;98511.55;;;4.78;61.89
61898;BME280;47850;50.274;18.908;2023-04-28T00:45:12;98514.10;;;4.77;61.76
61898;BME280;47850;50.274;18.908;2023-04-28T00:47:39;98516.20;;;4.76;61.94
61898;BME280;47850;50.274;18.908;2023-04-28T00:50:08;98514.77;;;4.73;62.49
61898;BME280;47850;50.274;18.908;2023-04-28T00:52:37;98514.54;;;4.71;62.91
61898;BME280;47850;50.274;18.908;2023-04-28T00:55:05;98513.31;;;4.65;63.38
61898;BME280;47850;50.274;18.908;2023-04-28T00:57:33;98514.66;;;4.58;63.55
61898;BME280;47850;50.274;18.908;2023-04-28T01:00:02;98513.52;;;4.53;62.95
61898;BME280;47850;50.274;18.908;2023-04-28T01:02:30;98511.81;;;4.49;62.52
61898;BME280;47850;50.274;18.908;2023-04-28T01:04:58;98511.84;;;4.47;62.54
61898;BME280;47850;50.274;18.908;2023-04-28T01:07:26;98512.89;;;4.43;62.83
61898;BME280;47850;50.274;18.908;2023-04-28T01:09:55;98513.11;;;4.39;62.87
61898;BME280;47850;50.274;18.908;2023-04-28T01:12:22;98514.06;;;4.34;63.00
61898;BME280;47850;50.274;18.908;2023-04-28T01:14:50;98517.86;;;4.29;62.92
61898;BME280;47850;50.274;18.908;2023-04-28T01:17:18;98517.73;;;4.27;62.90
61898;BME280;47850;50.274;18.908;2023-04-28T01:19:46;98517.35;;;4.23;62.92
61898;BME280;47850;50.274;18.908;2023-04-28T01:22:14;98515.42;;;4.21;62.81
61898;BME280;47850;50.274;18.908;2023-04-28T01:24:42;98515.30;;;4.18;62.82
61898;BME280;47850;50.274;18.908;2023-04-28T01:27:10;98511.90;;;4.15;62.73
61898;BME280;47850;50.274;18.908;2023-04-28T01:29:38;98512.06;;;4.13;62.97
61898;BME280;47850;50.274;18.908;2023-04-28T01:32:06;98509.04;;;4.10;63.49
61898;BME280;47850;50.274;18.908;2023-04-28T01:34:33;98506.55;;;4.08;63.29
61898;BME280;47850;50.274;18.908;2023-04-28T01:37:01;98508.16;;;4.07;63.23
61898;BME280;47850;50.274;18.908;2023-04-28T01:39:28;98509.95;;;4.07;63.42
61898;BME280;47850;50.274;18.908;2023-04-28T01:41:56;98509.41;;;4.07;63.31
61898;BME280;47850;50.274;18.908;2023-04-28T01:44:24;98509.30;;;4.07;63.38
61898;BME280;47850;50.274;18.908;2023-04-28T01:46:51;98509.63;;;4.06;63.27
61898;BME280;47850;50.274;18.908;2023-04-28T01:49:19;98509.84;;;4.06;63.40
61898;BME280;47850;50.274;18.908;2023-04-28T01:51:47;98510.59;;;4.05;63.60
61898;BME280;47850;50.274;18.908;2023-04-28T01:54:14;98511.24;;;4.06;63.56
61898;BME280;47850;50.274;18.908;2023-04-28T01:56:42;98511.56;;;4.05;64.09
61898;BME280;47850;50.274;18.908;2023-04-28T01:59:10;98512.33;;;4.03;64.14
61898;BME280;47850;50.274;18.908;2023-04-28T02:01:37;98513.72;;;4.01;64.72
61898;BME280;47850;50.274;18.908;2023-04-28T02:04:05;98509.08;;;3.98;64.89
61898;BME280;47850;50.274;18.908;2023-04-28T02:06:33;98509.02;;;3.97;65.10
61898;BME280;47850;50.274;18.908;2023-04-28T02:09:00;98509.83;;;3.97;64.87
61898;BME280;47850;50.274;18.908;2023-04-28T02:11:28;98504.91;;;3.96;65.23
61898;BME280;47850;50.274;18.908;2023-04-28T02:13:55;98503.94;;;3.92;65.86
61898;BME280;47850;50.274;18.908;2023-04-28T02:16:23;98504.63;;;3.86;65.80
61898;BME280;47850;50.274;18.908;2023-04-28T02:18:51;98504.14;;;3.81;65.76
61898;BME280;47850;50.274;18.908;2023-04-28T02:21:18;98504.60;;;3.76;66.18
61898;BME280;47850;50.274;18.908;2023-04-28T02:23:46;98504.21;;;3.72;66.91
61898;BME280;47850;50.274;18.908;2023-04-28T02:26:14;98505.73;;;3.67;67.18
61898;BME280;47850;50.274;18.908;2023-04-28T02:28:41;98501.60;;;3.59;67.54
61898;BME280;47850;50.274;18.908;2023-04-28T02:31:10;98500.28;;;3.52;67.96
61898;BME280;47850;50.274;18.908;2023-04-28T02:33:38;98502.48;;;3.47;68.27
61898;BME280;47850;50.274;18.908;2023-04-28T02:36:06;98495.71;;;3.41;68.64
61898;BME280;47850;50.274;18.908;2023-04-28T02:38:34;98494.52;;;3.36;69.09
61898;BME280;47850;50.274;18.908;2023-04-28T02:41:02;98490.77;;;3.29;69.76
61898;BME280;47850;50.274;18.908;2023-04-28T02:43:31;98489.75;;;3.21;70.42
61898;BME280;47850;50.274;18.908;2023-04-28T02:45:59;98489.35;;;3.14;70.60
61898;BME280;47850;50.274;18.908;2023-04-28T02:48:27;98486.52;;;3.08;70.60
61898;BME280;47850;50.274;18.908;2023-04-28T02:50:55;98485.08;;;3.02;70.73
61898;BME280;47850;50.274;18.908;2023-04-28T02:53:22;98484.64;;;2.97;71.01
61898;BME280;47850;50.274;18.908;2023-04-28T02:55:50;98483.96;;;2.92;71.54
61898;BME280;47850;50.274;18.908;2023-04-28T02:58:18;98488.63;;;2.86;71.57
61898;BME280;47850;50.274;18.908;2023-04-28T03:00:45;98491.83;;;2.82;71.79
61898;BME280;47850;50.274;18.908;2023-04-28T03:03:13;98486.63;;;2.77;72.09
61898;BME280;47850;50.274;18.908;2023-04-28T03:05:41;98489.45;;;2.73;72.36
61898;BME280;47850;50.274;18.908;2023-04-28T03:08:08;98489.76;;;2.70;72.47
61898;BME280;47850;50.274;18.908;2023-04-28T03:10:36;98485.38;;;2.67;72.33
61898;BME280;47850;50.274;18.908;2023-04-28T03:13:03;98488.86;;;2.64;72.41
61898;BME280;47850;50.274;18.908;2023-04-28T03:15:31;98484.20;;;2.60;72.44
61898;BME280;47850;50.274;18.908;2023-04-28T03:17:59;98486.12;;;2.58;72.78
61898;BME280;47850;50.274;18.908;2023-04-28T03:20:27;98483.14;;;2.54;73.31
61898;BME280;47850;50.274;18.908;2023-04-28T03:22:55;98483.02;;;2.50;73.68
61898;BME280;47850;50.274;18.908;2023-04-28T03:25:22;98483.59;;;2.49;73.50
61898;BME280;47850;50.274;18.908;2023-04-28T03:27:50;98482.77;;;2.48;73.60
61898;BME280;47850;50.274;18.908;2023-04-28T03:30:18;98482.28;;;2.46;73.39
61898;BME280;47850;50.274;18.908;2023-04-28T03:32:45;98484.95;;;2.45;73.01
61898;BME280;47850;50.274;18.908;2023-04-28T03:35:13;98479.73;;;2.44;73.23
61898;BME280;47850;50.274;18.908;2023-04-28T03:37:41;98479.84;;;2.45;72.99
61898;BME280;47850;50.274;18.908;2023-04-28T03:40:08;98483.77;;;2.45;72.87
61898;BME280;47850;50.274;18.908;2023-04-28T03:42:36;98481.98;;;2.45;72.47
61898;BME280;47850;50.274;18.908;2023-04-28T03:45:04;98481.58;;;2.46;72.38
61898;BME280;47850;50.274;18.908;2023-04-28T03:47:32;98478.31;;;2.50;72.24
61898;BME280;47850;50.274;18.908;2023-04-28T03:49:59;98477.42;;;2.53;72.14
61898;BME280;47850;50.274;18.908;2023-04-28T03:52:27;98469.74;;;2.56;72.24
61898;BME280;47850;50.274;18.908;2023-04-28T03:54:55;98468.96;;;2.59;72.05
61898;BME280;47850;50.274;18.908;2023-04-28T03:57:22;98470.87;;;2.64;71.94
61898;BME280;47850;50.274;18.908;2023-04-28T03:59:50;98474.36;;;2.71;72.58
61898;BME280;47850;50.274;18.908;2023-04-28T04:02:18;98475.99;;;2.75;72.25
61898;BME280;47850;50.274;18.908;2023-04-28T04:04:46;98479.25;;;2.78;72.06
61898;BME280;47850;50.274;18.908;2023-04-28T04:07:14;98482.34;;;2.82;71.67
61898;BME280;47850;50.274;18.908;2023-04-28T04:09:41;98477.89;;;2.86;71.58
61898;BME280;47850;50.274;18.908;2023-04-28T04:12:09;98480.63;;;2.90;71.66
61898;BME280;47850;50.274;18.908;2023-04-28T04:14:37;98481.77;;;2.94;71.46
61898;BME280;47850;50.274;18.908;2023-04-28T04:17:04;98487.28;;;2.98;71.53
61898;BME280;47850;50.274;18.908;2023-04-28T04:19:32;98485.36;;;3.04;71.38
61898;BME280;47850;50.274;18.908;2023-04-28T04:22:00;98491.22;;;3.09;71.21
61898;BME280;47850;50.274;18.908;2023-04-28T04:24:27;98490.25;;;3.11;71.31
61898;BME280;47850;50.274;18.908;2023-04-28T04:26:55;98495.02;;;3.16;71.67
61898;BME280;47850;50.274;18.908;2023-04-28T04:29:23;98497.13;;;3.20;71.41
61898;BME280;47850;50.274;18.908;2023-04-28T04:31:51;98496.67;;;3.25;70.97
61898;BME280;47850;50.274;18.908;2023-04-28T04:34:19;98500.42;;;3.32;70.93
61898;BME280;47850;50.274;18.908;2023-04-28T04:36:46;98498.93;;;3.37;70.84
61898;BME280;47850;50.274;18.908;2023-04-28T04:39:14;98502.30;;;3.44;70.72
61898;BME280;47850;50.274;18.908;2023-04-28T04:41:42;98498.92;;;3.48;70.26
61898;BME280;47850;50.274;18.908;2023-04-28T04:44:09;98501.10;;;3.56;70.26
61898;BME280;47850;50.274;18.908;2023-04-28T04:46:37;98500.04;;;3.62;70.01
61898;BME280;47850;50.274;18.908;2023-04-28T04:49:05;98502.76;;;3.67;69.89
61898;BME280;47850;50.274;18.908;2023-04-28T04:51:32;98499.80;;;3.72;69.90
61898;BME280;47850;50.274;18.908;2023-04-28T04:54:00;98496.52;;;3.77;69.51
61898;BME280;47850;50.274;18.908;2023-04-28T04:56:28;98497.49;;;3.82;69.41
61898;BME280;47850;50.274;18.908;2023-04-28T04:58:55;98496.01;;;3.90;69.32
61898;BME280;47850;50.274;18.908;2023-04-28T05:01:23;98496.34;;;3.99;69.11
61898;BME280;47850;50.274;18.908;2023-04-28T05:03:51;98497.60;;;4.11;68.79
61898;BME280;47850;50.274;18.908;2023-04-28T05:06:19;98496.59;;;4.24;68.54
61898;BME280;47850;50.274;18.908;2023-04-28T05:08:47;98494.58;;;4.37;68.02
61898;BME280;47850;50.274;18.908;2023-04-28T05:11:14;98492.41;;;4.50;68.16
61898;BME280;47850;50.274;18.908;2023-04-28T05:13:42;98498.23;;;4.62;67.77
61898;BME280;47850;50.274;18.908;2023-04-28T05:16:10;98500.05;;;4.75;67.41
61898;BME280;47850;50.274;18.908;2023-04-28T05:18:37;98500.19;;;4.88;66.72
61898;BME280;47850;50.274;18.908;2023-04-28T05:21:05;98503.56;;;5.00;66.30
61898;BME280;47850;50.274;18.908;2023-04-28T05:23:33;98501.70;;;5.11;65.53
61898;BME280;47850;50.274;18.908;2023-04-28T05:26:01;98503.55;;;5.21;65.44
61898;BME280;47850;50.274;18.908;2023-04-28T05:28:30;98502.48;;;5.34;65.14
61898;BME280;47850;50.274;18.908;2023-04-28T05:30:58;98502.71;;;5.44;64.69
61898;BME280;47850;50.274;18.908;2023-04-28T05:33:25;98502.66;;;5.54;64.36
61898;BME280;47850;50.274;18.908;2023-04-28T05:35:53;98503.23;;;5.62;63.47
61898;BME280;47850;50.274;18.908;2023-04-28T05:38:21;98503.77;;;5.72;63.04
61898;BME280;47850;50.274;18.908;2023-04-28T05:40:49;98502.47;;;5.83;62.28
61898;BME280;47850;50.274;18.908;2023-04-28T05:43:17;98507.06;;;5.92;61.90
61898;BME280;47850;50.274;18.908;2023-04-28T05:45:44;98501.19;;;5.99;60.77
61898;BME280;47850;50.274;18.908;2023-04-28T05:48:12;98504.75;;;6.03;59.57
61898;BME280;47850;50.274;18.908;2023-04-28T05:50:40;98501.08;;;6.09;59.63
61898;BME280;47850;50.274;18.908;2023-04-28T05:53:08;98499.65;;;6.19;59.74
61898;BME280;47850;50.274;18.908;2023-04-28T05:55:35;98496.31;;;6.31;59.36
61898;BME280;47850;50.274;18.908;2023-04-28T05:58:03;98493.98;;;6.44;59.15
61898;BME280;47850;50.274;18.908;2023-04-28T06:00:31;98495.92;;;6.58;59.01
61898;BME280;47850;50.274;18.908;2023-04-28T06:02:59;98493.41;;;6.72;58.52
61898;BME280;47850;50.274;18.908;2023-04-28T06:05:27;98489.84;;;6.88;58.13
61898;BME280;47850;50.274;18.908;2023-04-28T06:07:55;98495.02;;;7.00;57.56
61898;BME280;47850;50.274;18.908;2023-04-28T06:10:24;98498.48;;;7.11;56.88
61898;BME280;47850;50.274;18.908;2023-04-28T06:12:52;98502.76;;;7.17;56.54
61898;BME280;47850;50.274;18.908;2023-04-28T06:15:19;98503.64;;;7.26;56.54
61898;BME280;47850;50.274;18.908;2023-04-28T06:17:47;98504.30;;;7.39;56.39
61898;BME280;47850;50.274;18.908;2023-04-28T06:20:15;98503.35;;;7.50;55.77
61898;BME280;47850;50.274;18.908;2023-04-28T06:22:43;98506.81;;;7.60;54.82
61898;BME280;47850;50.274;18.908;2023-04-28T06:25:10;98502.25;;;7.68;54.59
61898;BME280;47850;50.274;18.908;2023-04-28T06:27:38;98498.91;;;7.73;54.12
61898;BME280;47850;50.274;18.908;2023-04-28T06:30:06;98494.51;;;7.78;54.43
61898;BME280;47850;50.274;18.908;2023-04-28T06:32:34;98491.86;;;7.81;54.34
61898;BME280;47850;50.274;18.908;2023-04-28T06:35:01;98493.62;;;7.80;53.57
61898;BME280;47850;50.274;18.908;2023-04-28T06:37:29;98494.91;;;7.72;53.72
61898;BME280;47850;50.274;18.908;2023-04-28T06:39:57;98496.85;;;7.71;53.98
61898;BME280;47850;50.274;18.908;2023-04-28T06:42:24;98496.91;;;7.73;53.83
61898;BME280;47850;50.274;18.908;2023-04-28T06:44:52;98496.19;;;7.78;53.29
61898;BME280;47850;50.274;18.908;2023-04-28T06:47:20;98502.62;;;7.86;52.95
61898;BME280;47850;50.274;18.908;2023-04-28T06:49:48;98501.33;;;7.89;51.65
61898;BME280;47850;50.274;18.908;2023-04-28T06:52:16;98499.20;;;7.96;51.98
61898;BME280;47850;50.274;18.908;2023-04-28T06:54:44;98495.45;;;8.04;51.53
61898;BME280;47850;50.274;18.908;2023-04-28T06:57:11;98487.86;;;8.11;51.22
61898;BME280;47850;50.274;18.908;2023-04-28T06:59:39;98481.58;;;8.19;51.28
61898;BME280;47850;50.274;18.908;2023-04-28T07:02:10;98484.52;;;8.29;51.12
61898;BME280;47850;50.274;18.908;2023-04-28T07:04:38;98481.36;;;8.40;50.71
61898;BME280;47850;50.274;18.908;2023-04-28T07:07:05;98483.05;;;8.51;49.73
61898;BME280;47850;50.274;18.908;2023-04-28T07:09:36;98477.56;;;8.61;49.27
61898;BME280;47850;50.274;18.908;2023-04-28T07:12:04;98475.14;;;8.69;48.88
61898;BME280;47850;50.274;18.908;2023-04-28T07:14:32;98471.59;;;8.78;49.38
61898;BME280;47850;50.274;18.908;2023-04-28T07:16:59;98471.89;;;8.86;48.06
61898;BME280;47850;50.274;18.908;2023-04-28T07:19:27;98469.61;;;8.91;48.16
61898;BME280;47850;50.274;18.908;2023-04-28T07:21:55;98472.55;;;9.01;47.84
61898;BME280;47850;50.274;18.908;2023-04-28T07:24:22;98471.68;;;9.12;47.73
61898;BME280;47850;50.274;18.908;2023-04-28T07:26:50;98471.73;;;9.23;47.39
61898;BME280;47850;50.274;18.908;2023-04-28T07:29:18;98472.02;;;9.33;47.23
61898;BME280;47850;50.274;18.908;2023-04-28T07:31:46;98470.48;;;9.47;46.42
61898;BME280;47850;50.274;18.908;2023-04-28T07:34:14;98468.17;;;9.58;44.77
61898;BME280;47850;50.274;18.908;2023-04-28T07:36:42;98464.40;;;9.72;44.70
61898;BME280;47850;50.274;18.908;2023-04-28T07:39:10;98461.07;;;9.84;44.34
61898;BME280;47850;50.274;18.908;2023-04-28T07:41:38;98460.05;;;9.93;44.60
61898;BME280;47850;50.274;18.908;2023-04-28T07:44:05;98456.93;;;10.03;44.32
61898;BME280;47850;50.274;18.908;2023-04-28T07:46:34;98453.29;;;10.17;43.87
61898;BME280;47850;50.274;18.908;2023-04-28T07:49:02;98454.30;;;10.29;42.90
61898;BME280;47850;50.274;18.908;2023-04-28T07:51:31;98451.55;;;10.40;41.27
61898;BME280;47850;50.274;18.908;2023-04-28T07:53:58;98450.61;;;10.48;41.03
61898;BME280;47850;50.274;18.908;2023-04-28T07:56:26;98450.70;;;10.54;41.64
61898;BME280;47850;50.274;18.908;2023-04-28T07:58:54;98447.65;;;10.60;41.35
61898;BME280;47850;50.274;18.908;2023-04-28T08:01:21;98447.76;;;10.67;40.88
61898;BME280;47850;50.274;18.908;2023-04-28T08:03:49;98445.69;;;10.71;40.81
61898;BME280;47850;50.274;18.908;2023-04-28T08:06:17;98442.05;;;10.81;41.11
61898;BME280;47850;50.274;18.908;2023-04-28T08:08:45;98440.88;;;10.94;41.00
61898;BME280;47850;50.274;18.908;2023-04-28T08:11:13;98440.38;;;11.08;40.79
61898;BME280;47850;50.274;18.908;2023-04-28T08:13:41;98440.88;;;11.21;39.57
61898;BME280;47850;50.274;18.908;2023-04-28T08:16:08;98439.25;;;11.28;38.31
61898;BME280;47850;50.274;18.908;2023-04-28T08:18:36;98439.20;;;11.30;37.64
61898;BME280;47850;50.274;18.908;2023-04-28T08:23:21;98436.59;;;11.43;37.22
61898;BME280;47850;50.274;18.908;2023-04-28T08:25:49;98432.91;;;11.44;37.50
61898;BME280;47850;50.274;18.908;2023-04-28T08:28:16;98428.85;;;11.48;37.13
61898;BME280;47850;50.274;18.908;2023-04-28T08:30:44;98426.64;;;11.46;36.99
61898;BME280;47850;50.274;18.908;2023-04-28T08:33:12;98429.70;;;11.46;36.07
61898;BME280;47850;50.274;18.908;2023-04-28T08:35:40;98429.09;;;11.44;34.63
61898;BME280;47850;50.274;18.908;2023-04-28T08:38:08;98423.45;;;11.43;34.97
61898;BME280;47850;50.274;18.908;2023-04-28T08:40:40;98418.10;;;11.45;35.77
61898;BME280;47850;50.274;18.908;2023-04-28T08:43:09;98418.10;;;11.55;36.35
61898;BME280;47850;50.274;18.908;2023-04-28T08:45:41;98414.51;;;11.69;37.06
61898;BME280;47850;50.274;18.908;2023-04-28T08:48:21;98412.63;;;11.83;36.69
61898;BME280;47850;50.274;18.908;2023-04-28T08:50:52;98408.52;;;11.93;35.81
61898;BME280;47850;50.274;18.908;2023-04-28T08:53:21;98408.49;;;12.02;35.76
61898;BME280;47850;50.274;18.908;2023-04-28T08:55:54;98406.70;;;12.05;35.68
61898;BME280;47850;50.274;18.908;2023-04-28T08:58:26;98402.38;;;12.13;36.08
61898;BME280;47850;50.274;18.908;2023-04-28T09:00:53;98405.27;;;12.24;36.20
61898;BME280;47850;50.274;18.908;2023-04-28T09:03:21;98402.79;;;12.34;35.77
61898;BME280;47850;50.274;18.908;2023-04-28T09:05:49;98398.34;;;12.40;35.87
61898;BME280;47850;50.274;18.908;2023-04-28T09:08:16;98403.42;;;12.42;35.47
61898;BME280;47850;50.274;18.908;2023-04-28T09:10:45;98398.33;;;12.42;35.54
61898;BME280;47850;50.274;18.908;2023-04-28T09:13:25;98394.35;;;12.41;35.55
61898;BME280;47850;50.274;18.908;2023-04-28T09:15:58;98394.86;;;12.48;35.97
61898;BME280;47850;50.274;18.908;2023-04-28T09:18:26;98397.13;;;12.57;35.83
61898;BME280;47850;50.274;18.908;2023-04-28T09:21:01;98394.80;;;12.62;35.71
61898;BME280;47850;50.274;18.908;2023-04-28T09:23:29;98392.78;;;12.58;35.71
61898;BME280;47850;50.274;18.908;2023-04-28T09:26:01;98389.85;;;12.67;35.93
61898;BME280;47850;50.274;18.908;2023-04-28T09:28:29;98386.59;;;12.79;36.04
61898;BME280;47850;50.274;18.908;2023-04-28T09:30:57;98390.99;;;12.93;35.95
61898;BME280;47850;50.274;18.908;2023-04-28T09:33:25;98387.98;;;12.97;35.10
61898;BME280;47850;50.274;18.908;2023-04-28T09:35:53;98390.69;;;12.98;35.30
61898;BME280;47850;50.274;18.908;2023-04-28T09:38:21;98385.86;;;12.96;34.37
61898;BME280;47850;50.274;18.908;2023-04-28T09:43:30;98372.08;;;13.06;35.50
61898;BME280;47850;50.274;18.908;2023-04-28T09:45:59;98369.89;;;13.18;35.15
61898;BME280;47850;50.274;18.908;2023-04-28T09:50:55;98360.89;;;13.38;35.66
61898;BME280;47850;50.274;18.908;2023-04-28T09:53:23;98364.34;;;13.55;34.64
61898;BME280;47850;50.274;18.908;2023-04-28T09:55:51;98354.15;;;13.56;33.07
61898;BME280;47850;50.274;18.908;2023-04-28T09:58:19;98351.36;;;13.53;33.06
61898;BME280;47850;50.274;18.908;2023-04-28T10:00:52;98349.27;;;13.43;33.49
61898;BME280;47850;50.274;18.908;2023-04-28T10:03:21;98346.20;;;13.47;33.85
61898;BME280;47850;50.274;18.908;2023-04-28T10:05:49;98344.52;;;13.65;33.53
61898;BME280;47850;50.274;18.908;2023-04-28T10:08:19;98341.71;;;13.76;32.72
61898;BME280;47850;50.274;18.908;2023-04-28T10:10:48;98332.34;;;13.88;32.66
61898;BME280;47850;50.274;18.908;2023-04-28T10:13:16;98344.84;;;13.94;32.06
61898;BME280;47850;50.274;18.908;2023-04-28T10:15:45;98339.48;;;14.02;32.77
61898;BME280;47850;50.274;18.908;2023-04-28T10:18:14;98333.62;;;14.20;32.19
61898;BME280;47850;50.274;18.908;2023-04-28T10:20:45;98328.77;;;14.30;32.03
61898;BME280;47850;50.274;18.908;2023-04-28T10:26:01;98321.91;;;14.86;32.52
61898;BME280;47850;50.274;18.908;2023-04-28T10:28:29;98320.83;;;15.10;31.08
61898;BME280;47850;50.274;18.908;2023-04-28T10:31:10;98320.44;;;15.26;31.14
61898;BME280;47850;50.274;18.908;2023-04-28T10:33:38;98312.59;;;15.42;31.28
61898;BME280;47850;50.274;18.908;2023-04-28T10:36:07;98301.54;;;15.57;31.26
61898;BME280;47850;50.274;18.908;2023-04-28T10:38:35;98301.20;;;15.73;31.41
61898;BME280;47850;50.274;18.908;2023-04-28T10:41:04;98303.84;;;15.71;30.66
61898;BME280;47850;50.274;18.908;2023-04-28T10:43:52;98301.18;;;15.41;30.84
61898;BME280;47850;50.274;18.908;2023-04-28T10:46:19;98299.66;;;15.15;30.62
61898;BME280;47850;50.274;18.908;2023-04-28T10:56:21;98282.59;;;15.50;30.77
61898;BME280;47850;50.274;18.908;2023-04-28T10:58:50;98276.88;;;15.73;30.60
61898;BME280;47850;50.274;18.908;2023-04-28T11:08:45;98260.41;;;16.49;29.73
61898;BME280;47850;50.274;18.908;2023-04-28T11:11:14;98255.93;;;16.45;30.21
61898;BME280;47850;50.274;18.908;2023-04-28T11:13:42;98258.05;;;16.49;28.57
61898;BME280;47850;50.274;18.908;2023-04-28T11:16:14;98251.51;;;16.45;28.88
61898;BME280;47850;50.274;18.908;2023-04-28T11:21:10;98246.67;;;16.77;29.75
61898;BME280;47850;50.274;18.908;2023-04-28T11:23:38;98243.48;;;17.09;28.84
61898;BME280;47850;50.274;18.908;2023-04-28T11:26:06;98245.63;;;17.22;28.49
61898;BME280;47850;50.274;18.908;2023-04-28T11:28:34;98246.14;;;17.28;28.72
61898;BME280;47850;50.274;18.908;2023-04-28T11:31:13;98243.88;;;17.29;28.96
61898;BME280;47850;50.274;18.908;2023-04-28T11:33:52;98237.56;;;17.21;28.98
61898;BME280;47850;50.274;18.908;2023-04-28T11:36:27;98236.80;;;17.10;28.66
61898;BME280;47850;50.274;18.908;2023-04-28T11:38:55;98237.36;;;17.03;28.70
61898;BME280;47850;50.274;18.908;2023-04-28T11:41:24;98233.67;;;17.35;28.71
61898;BME280;47850;50.274;18.908;2023-04-28T11:43:53;98232.42;;;17.60;28.27
61898;BME280;47850;50.274;18.908;2023-04-28T11:46:22;98231.89;;;18.03;28.24
61898;BME280;47850;50.274;18.908;2023-04-28T11:49:01;98235.50;;;18.35;26.82
61898;BME280;47850;50.274;18.908;2023-04-28T11:51:29;98232.84;;;18.41;26.90
61898;BME280;47850;50.274;18.908;2023-04-28T11:53:59;98230.16;;;18.38;27.10
61898;BME280;47850;50.274;18.908;2023-04-28T11:56:28;98230.08;;;18.26;27.20
61898;BME280;47850;50.274;18.908;2023-04-28T11:59:02;98230.71;;;18.17;26.99
61898;BME280;47850;50.274;18.908;2023-04-28T12:01:31;98230.08;;;18.31;26.75
61898;BME280;47850;50.274;18.908;2023-04-28T12:03:59;98221.64;;;18.73;26.89
61898;BME280;47850;50.274;18.908;2023-04-28T12:06:27;98219.05;;;19.14;26.51
61898;BME280;47850;50.274;18.908;2023-04-28T12:08:56;98217.27;;;19.65;26.26
61898;BME280;47850;50.274;18.908;2023-04-28T12:11:24;98222.06;;;19.91;24.95
61898;BME280;47850;50.274;18.908;2023-04-28T12:14:02;98213.64;;;20.04;25.13
61898;BME280;47850;50.274;18.908;2023-04-28T12:16:36;98205.95;;;20.11;24.37
61898;BME280;47850;50.274;18.908;2023-04-28T12:19:10;98206.77;;;20.24;24.82
61898;BME280;47850;50.274;18.908;2023-04-28T12:21:39;98204.73;;;20.49;24.39
61898;BME280;47850;50.274;18.908;2023-04-28T12:24:41;98197.98;;;20.69;24.27
61898;BME280;47850;50.274;18.908;2023-04-28T12:27:18;98195.01;;;20.83;24.32
61898;BME280;47850;50.274;18.908;2023-04-28T12:29:51;98190.97;;;21.00;23.96
61898;BME280;47850;50.274;18.908;2023-04-28T12:32:18;98189.46;;;21.17;23.67
61898;BME280;47850;50.274;18.908;2023-04-28T12:34:46;98179.80;;;21.41;23.91
61898;BME280;47850;50.274;18.908;2023-04-28T12:37:14;98176.54;;;21.41;22.33
61898;BME280;47850;50.274;18.908;2023-04-28T12:39:42;98169.64;;;21.38;22.92
61898;BME280;47850;50.274;18.908;2023-04-28T12:42:10;98169.86;;;21.35;21.90
61898;BME280;47850;50.274;18.908;2023-04-28T12:44:38;98175.46;;;21.02;21.57
61898;BME280;47850;50.274;18.908;2023-04-28T12:47:07;98171.50;;;20.75;22.05
61898;BME280;47850;50.274;18.908;2023-04-28T12:49:35;98160.98;;;20.66;22.47
61898;BME280;47850;50.274;18.908;2023-04-28T12:52:03;98158.95;;;20.96;23.12
61898;BME280;47850;50.274;18.908;2023-04-28T12:54:32;98156.63;;;21.33;22.61
61898;BME280;47850;50.274;18.908;2023-04-28T12:56:59;98158.60;;;21.53;22.40
61898;BME280;47850;50.274;18.908;2023-04-28T12:59:28;98153.73;;;21.82;22.64
61898;BME280;47850;50.274;18.908;2023-04-28T13:01:56;98145.08;;;22.31;22.54
61898;BME280;47850;50.274;18.908;2023-04-28T13:04:24;98141.27;;;22.93;22.27
61898;BME280;47850;50.274;18.908;2023-04-28T13:06:52;98141.47;;;23.41;21.10
61898;BME280;47850;50.274;18.908;2023-04-28T13:09:19;98137.58;;;23.98;21.38
61898;BME280;47850;50.274;18.908;2023-04-28T13:11:47;98133.95;;;24.64;20.65
61898;BME280;47850;50.274;18.908;2023-04-28T13:14:15;98135.02;;;25.08;19.95
61898;BME280;47850;50.274;18.908;2023-04-28T13:16:43;98130.57;;;25.83;19.42
61898;BME280;47850;50.274;18.908;2023-04-28T13:19:10;98127.65;;;26.52;18.57
61898;BME280;47850;50.274;18.908;2023-04-28T13:21:40;98124.60;;;27.29;18.21
61898;BME280;47850;50.274;18.908;2023-04-28T13:24:13;98130.89;;;27.87;17.48
61898;BME280;47850;50.274;18.908;2023-04-28T13:26:41;98124.80;;;28.48;17.45
61898;BME280;47850;50.274;18.908;2023-04-28T13:29:10;98114.83;;;29.18;16.17